sensor_id;sensor_type;location;lat;lon;timestamp;P1;durP1;ratioP1;P2;durP2;ratioP2
2868;SDS011;1442;47.448;8.582;2022-12-17T00:00:30;24.48;;;11.05;;
2868;SDS011;1442;47.448;8.582;2022-12-17T00:03:15;26.98;;;11.98;;
2868;SDS011;1442;47.448;8.582;2022-12-17T00:06:00;22.88;;;11.43;;
2868;SDS011;1442;47.448;8.582;2022-12-17T00:08:44;23.23;;;11.88;;
2868;SDS011;1442;47.448;8.582;2022-12-17T00:11:31;21.60;;;10.98;;
2868;SDS011;1442;47.448;8.582;2022-12-17T00:14:16;18.95;;;11.10;;
2868;SDS011;1442;47.448;8.582;2022-12-17T00:17:00;22.48;;;10.85;;
2868;SDS011;1442;47.448;8.582;2022-12-17T00:19:45;25.02;;;10.98;;
2868;SDS011;1442;47.448;8.582;2022-12-17T00:22:30;26.80;;;12.50;;
2868;SDS011;1442;47.448;8.582;2022-12-17T00:25:14;23.92;;;11.43;;
2868;SDS011;1442;47.448;8.582;2022-12-17T00:28:00;22.60;;;11.82;;
2868;SDS011;1442;47.448;8.582;2022-12-17T00:30:49;23.02;;;12.00;;
2868;SDS011;1442;47.448;8.582;2022-12-17T00:33:48;27.95;;;12.15;;
2868;SDS011;1442;47.448;8.582;2022-12-17T00:36:33;24.90;;;12.13;;
2868;SDS011;1442;47.448;8.582;2022-12-17T00:39:17;31.52;;;12.95;;
2868;SDS011;1442;47.448;8.582;2022-12-17T00:42:02;23.92;;;11.80;;
2868;SDS011;1442;47.448;8.582;2022-12-17T00:44:48;32.42;;;12.43;;
2868;SDS011;1442;47.448;8.582;2022-12-17T00:47:33;25.30;;;12.73;;
2868;SDS011;1442;47.448;8.582;2022-12-17T00:50:18;28.50;;;13.30;;
2868;SDS011;1442;47.448;8.582;2022-12-17T00:53:03;25.58;;;12.85;;
2868;SDS011;1442;47.448;8.582;2022-12-17T00:55:47;27.60;;;12.57;;
2868;SDS011;1442;47.448;8.582;2022-12-17T00:58:32;26.05;;;13.82;;
2868;SDS011;1442;47.448;8.582;2022-12-17T01:01:18;28.00;;;12.60;;
2868;SDS011;1442;47.448;8.582;2022-12-17T01:04:11;23.75;;;12.88;;
2868;SDS011;1442;47.448;8.582;2022-12-17T01:06:56;22.98;;;13.23;;
2868;SDS011;1442;47.448;8.582;2022-12-17T01:09:41;22.33;;;11.85;;
2868;SDS011;1442;47.448;8.582;2022-12-17T01:12:25;33.60;;;14.43;;
2868;SDS011;1442;47.448;8.582;2022-12-17T01:15:10;24.08;;;12.77;;
2868;SDS011;1442;47.448;8.582;2022-12-17T01:17:56;23.23;;;12.38;;
2868;SDS011;1442;47.448;8.582;2022-12-17T01:20:41;24.10;;;11.88;;
2868;SDS011;1442;47.448;8.582;2022-12-17T01:23:26;23.90;;;11.95;;
2868;SDS011;1442;47.448;8.582;2022-12-17T01:26:10;22.88;;;12.45;;
2868;SDS011;1442;47.448;8.582;2022-12-17T01:28:51;22.20;;;11.10;;
2868;SDS011;1442;47.448;8.582;2022-12-17T01:31:36;24.08;;;11.70;;
2868;SDS011;1442;47.448;8.582;2022-12-17T01:34:22;22.05;;;11.63;;
2868;SDS011;1442;47.448;8.582;2022-12-17T01:37:07;23.50;;;11.75;;
2868;SDS011;1442;47.448;8.582;2022-12-17T01:39:51;21.50;;;11.18;;
2868;SDS011;1442;47.448;8.582;2022-12-17T01:42:37;24.20;;;11.73;;
2868;SDS011;1442;47.448;8.582;2022-12-17T01:45:22;25.38;;;11.85;;
2868;SDS011;1442;47.448;8.582;2022-12-17T01:48:07;22.95;;;10.65;;
2868;SDS011;1442;47.448;8.582;2022-12-17T01:50:55;21.05;;;10.75;;
2868;SDS011;1442;47.448;8.582;2022-12-17T01:53:43;19.33;;;10.55;;
2868;SDS011;1442;47.448;8.582;2022-12-17T01:56:29;20.45;;;11.20;;
2868;SDS011;1442;47.448;8.582;2022-12-17T01:59:14;22.65;;;12.15;;
2868;SDS011;1442;47.448;8.582;2022-12-17T02:02:00;21.25;;;11.57;;
2868;SDS011;1442;47.448;8.582;2022-12-17T02:04:45;26.92;;;11.75;;
2868;SDS011;1442;47.448;8.582;2022-12-17T02:07:36;30.55;;;13.20;;
2868;SDS011;1442;47.448;8.582;2022-12-17T02:10:28;27.15;;;13.32;;
2868;SDS011;1442;47.448;8.582;2022-12-17T02:13:17;23.67;;;11.68;;
2868;SDS011;1442;47.448;8.582;2022-12-17T02:16:04;24.95;;;12.80;;
2868;SDS011;1442;47.448;8.582;2022-12-17T02:18:52;23.98;;;12.50;;
2868;SDS011;1442;47.448;8.582;2022-12-17T02:21:39;26.63;;;13.18;;
2868;SDS011;1442;47.448;8.582;2022-12-17T02:24:30;25.67;;;12.77;;
2868;SDS011;1442;47.448;8.582;2022-12-17T02:27:18;27.30;;;12.87;;
2868;SDS011;1442;47.448;8.582;2022-12-17T02:30:05;24.70;;;12.52;;
2868;SDS011;1442;47.448;8.582;2022-12-17T02:32:50;24.88;;;12.77;;
2868;SDS011;1442;47.448;8.582;2022-12-17T02:35:36;23.08;;;12.57;;
2868;SDS011;1442;47.448;8.582;2022-12-17T02:38:23;26.45;;;13.35;;
2868;SDS011;1442;47.448;8.582;2022-12-17T02:41:08;31.83;;;13.73;;
2868;SDS011;1442;47.448;8.582;2022-12-17T02:43:55;25.02;;;13.00;;
2868;SDS011;1442;47.448;8.582;2022-12-17T02:46:40;30.23;;;14.20;;
2868;SDS011;1442;47.448;8.582;2022-12-17T02:49:25;27.52;;;14.32;;
2868;SDS011;1442;47.448;8.582;2022-12-17T02:52:10;32.30;;;16.02;;
2868;SDS011;1442;47.448;8.582;2022-12-17T02:54:55;34.95;;;14.98;;
2868;SDS011;1442;47.448;8.582;2022-12-17T02:57:40;30.92;;;15.18;;
2868;SDS011;1442;47.448;8.582;2022-12-17T03:00:26;35.85;;;15.80;;
2868;SDS011;1442;47.448;8.582;2022-12-17T03:03:11;36.60;;;17.00;;
2868;SDS011;1442;47.448;8.582;2022-12-17T03:05:55;28.67;;;14.95;;
2868;SDS011;1442;47.448;8.582;2022-12-17T03:08:40;32.50;;;17.00;;
2868;SDS011;1442;47.448;8.582;2022-12-17T03:11:26;29.10;;;15.40;;
2868;SDS011;1442;47.448;8.582;2022-12-17T03:14:11;29.40;;;15.57;;
2868;SDS011;1442;47.448;8.582;2022-12-17T03:16:57;31.17;;;15.43;;
2868;SDS011;1442;47.448;8.582;2022-12-17T03:19:41;33.00;;;15.75;;
2868;SDS011;1442;47.448;8.582;2022-12-17T03:22:27;38.55;;;17.30;;
2868;SDS011;1442;47.448;8.582;2022-12-17T03:25:12;35.53;;;17.02;;
2868;SDS011;1442;47.448;8.582;2022-12-17T03:28:01;34.25;;;17.23;;
2868;SDS011;1442;47.448;8.582;2022-12-17T03:30:46;37.90;;;16.80;;
2868;SDS011;1442;47.448;8.582;2022-12-17T03:33:41;36.20;;;17.17;;
2868;SDS011;1442;47.448;8.582;2022-12-17T03:36:25;37.97;;;16.63;;
2868;SDS011;1442;47.448;8.582;2022-12-17T03:39:10;34.90;;;17.02;;
2868;SDS011;1442;47.448;8.582;2022-12-17T03:41:55;35.58;;;17.52;;
2868;SDS011;1442;47.448;8.582;2022-12-17T03:44:39;39.42;;;17.48;;
2868;SDS011;1442;47.448;8.582;2022-12-17T03:47:24;41.25;;;18.63;;
2868;SDS011;1442;47.448;8.582;2022-12-17T03:50:10;39.25;;;18.05;;
2868;SDS011;1442;47.448;8.582;2022-12-17T03:52:54;39.05;;;18.08;;
2868;SDS011;1442;47.448;8.582;2022-12-17T03:55:39;42.03;;;18.20;;
2868;SDS011;1442;47.448;8.582;2022-12-17T03:58:24;32.17;;;16.55;;
2868;SDS011;1442;47.448;8.582;2022-12-17T04:01:09;40.03;;;17.25;;
2868;SDS011;1442;47.448;8.582;2022-12-17T04:03:53;34.15;;;15.98;;
2868;SDS011;1442;47.448;8.582;2022-12-17T04:06:39;34.85;;;16.92;;
2868;SDS011;1442;47.448;8.582;2022-12-17T04:09:24;29.98;;;16.75;;
2868;SDS011;1442;47.448;8.582;2022-12-17T04:12:09;35.72;;;16.20;;
2868;SDS011;1442;47.448;8.582;2022-12-17T04:14:56;39.40;;;15.90;;
2868;SDS011;1442;47.448;8.582;2022-12-17T04:17:41;34.45;;;15.93;;
2868;SDS011;1442;47.448;8.582;2022-12-17T04:20:26;35.88;;;17.25;;
2868;SDS011;1442;47.448;8.582;2022-12-17T04:23:12;36.33;;;16.77;;
2868;SDS011;1442;47.448;8.582;2022-12-17T04:25:57;30.98;;;16.40;;
2868;SDS011;1442;47.448;8.582;2022-12-17T04:28:41;33.13;;;16.52;;
2868;SDS011;1442;47.448;8.582;2022-12-17T04:31:26;34.03;;;16.48;;
2868;SDS011;1442;47.448;8.582;2022-12-17T04:34:11;36.40;;;15.40;;
2868;SDS011;1442;47.448;8.582;2022-12-17T04:36:55;31.83;;;16.25;;
2868;SDS011;1442;47.448;8.582;2022-12-17T04:39:42;37.55;;;17.52;;
2868;SDS011;1442;47.448;8.582;2022-12-17T04:42:26;40.15;;;16.50;;
2868;SDS011;1442;47.448;8.582;2022-12-17T04:45:11;35.97;;;15.75;;
2868;SDS011;1442;47.448;8.582;2022-12-17T04:47:59;32.60;;;16.10;;
2868;SDS011;1442;47.448;8.582;2022-12-17T04:50:44;36.60;;;16.88;;
2868;SDS011;1442;47.448;8.582;2022-12-17T04:53:29;38.33;;;17.67;;
2868;SDS011;1442;47.448;8.582;2022-12-17T04:56:15;34.72;;;16.20;;
2868;SDS011;1442;47.448;8.582;2022-12-17T04:59:00;35.53;;;17.15;;
2868;SDS011;1442;47.448;8.582;2022-12-17T05:01:44;36.53;;;15.60;;
2868;SDS011;1442;47.448;8.582;2022-12-17T05:04:28;35.60;;;17.58;;
2868;SDS011;1442;47.448;8.582;2022-12-17T05:07:13;33.47;;;16.08;;
2868;SDS011;1442;47.448;8.582;2022-12-17T05:09:58;36.28;;;16.65;;
2868;SDS011;1442;47.448;8.582;2022-12-17T05:12:44;37.20;;;16.67;;
2868;SDS011;1442;47.448;8.582;2022-12-17T05:15:28;36.30;;;16.05;;
2868;SDS011;1442;47.448;8.582;2022-12-17T05:18:13;33.70;;;16.02;;
2868;SDS011;1442;47.448;8.582;2022-12-17T05:20:58;31.15;;;16.30;;
2868;SDS011;1442;47.448;8.582;2022-12-17T05:23:42;35.25;;;16.70;;
2868;SDS011;1442;47.448;8.582;2022-12-17T05:26:28;35.47;;;17.60;;
2868;SDS011;1442;47.448;8.582;2022-12-17T05:29:14;36.33;;;17.55;;
2868;SDS011;1442;47.448;8.582;2022-12-17T05:31:59;35.63;;;17.13;;
2868;SDS011;1442;47.448;8.582;2022-12-17T05:34:43;35.50;;;17.38;;
2868;SDS011;1442;47.448;8.582;2022-12-17T05:37:28;39.83;;;19.35;;
2868;SDS011;1442;47.448;8.582;2022-12-17T05:40:13;39.65;;;18.00;;
2868;SDS011;1442;47.448;8.582;2022-12-17T05:42:59;38.67;;;18.40;;
2868;SDS011;1442;47.448;8.582;2022-12-17T05:45:45;39.78;;;18.60;;
2868;SDS011;1442;47.448;8.582;2022-12-17T05:48:30;39.38;;;19.92;;
2868;SDS011;1442;47.448;8.582;2022-12-17T05:51:15;33.55;;;17.30;;
2868;SDS011;1442;47.448;8.582;2022-12-17T05:54:00;38.45;;;18.35;;
2868;SDS011;1442;47.448;8.582;2022-12-17T05:56:45;36.80;;;19.05;;
2868;SDS011;1442;47.448;8.582;2022-12-17T05:59:29;37.00;;;17.92;;
2868;SDS011;1442;47.448;8.582;2022-12-17T06:02:16;37.08;;;18.08;;
2868;SDS011;1442;47.448;8.582;2022-12-17T06:05:01;36.85;;;18.92;;
2868;SDS011;1442;47.448;8.582;2022-12-17T06:07:42;37.33;;;17.23;;
2868;SDS011;1442;47.448;8.582;2022-12-17T06:10:27;35.65;;;18.40;;
2868;SDS011;1442;47.448;8.582;2022-12-17T06:13:12;41.47;;;18.27;;
2868;SDS011;1442;47.448;8.582;2022-12-17T06:15:56;40.88;;;18.40;;
2868;SDS011;1442;47.448;8.582;2022-12-17T06:18:42;37.83;;;19.92;;
2868;SDS011;1442;47.448;8.582;2022-12-17T06:21:27;43.42;;;19.58;;
2868;SDS011;1442;47.448;8.582;2022-12-17T06:24:12;43.67;;;19.30;;
2868;SDS011;1442;47.448;8.582;2022-12-17T06:26:56;38.13;;;18.90;;
2868;SDS011;1442;47.448;8.582;2022-12-17T06:29:41;42.00;;;20.80;;
2868;SDS011;1442;47.448;8.582;2022-12-17T06:32:26;39.08;;;18.65;;
2868;SDS011;1442;47.448;8.582;2022-12-17T06:35:12;39.33;;;18.70;;
2868;SDS011;1442;47.448;8.582;2022-12-17T06:37:57;37.08;;;17.90;;
2868;SDS011;1442;47.448;8.582;2022-12-17T06:40:42;43.22;;;20.08;;
2868;SDS011;1442;47.448;8.582;2022-12-17T06:43:27;35.42;;;18.42;;
2868;SDS011;1442;47.448;8.582;2022-12-17T06:46:11;37.92;;;20.23;;
2868;SDS011;1442;47.448;8.582;2022-12-17T06:48:56;39.22;;;19.92;;
2868;SDS011;1442;47.448;8.582;2022-12-17T06:51:42;42.90;;;20.02;;
2868;SDS011;1442;47.448;8.582;2022-12-17T06:54:27;38.55;;;19.05;;
2868;SDS011;1442;47.448;8.582;2022-12-17T06:57:12;35.95;;;18.35;;
2868;SDS011;1442;47.448;8.582;2022-12-17T06:59:56;37.85;;;18.70;;
2868;SDS011;1442;47.448;8.582;2022-12-17T07:02:41;43.72;;;20.00;;
2868;SDS011;1442;47.448;8.582;2022-12-17T07:05:26;39.53;;;18.50;;
2868;SDS011;1442;47.448;8.582;2022-12-17T07:08:12;35.75;;;18.48;;
2868;SDS011;1442;47.448;8.582;2022-12-17T07:10:57;37.28;;;18.33;;
2868;SDS011;1442;47.448;8.582;2022-12-17T07:13:42;36.58;;;18.13;;
2868;SDS011;1442;47.448;8.582;2022-12-17T07:16:27;36.03;;;18.33;;
2868;SDS011;1442;47.448;8.582;2022-12-17T07:19:11;42.60;;;18.90;;
2868;SDS011;1442;47.448;8.582;2022-12-17T07:22:05;38.17;;;19.17;;
2868;SDS011;1442;47.448;8.582;2022-12-17T07:24:50;34.40;;;18.27;;
2868;SDS011;1442;47.448;8.582;2022-12-17T07:27:35;38.00;;;19.15;;
2868;SDS011;1442;47.448;8.582;2022-12-17T07:30:20;40.33;;;20.67;;
2868;SDS011;1442;47.448;8.582;2022-12-17T07:33:05;36.70;;;18.67;;
2868;SDS011;1442;47.448;8.582;2022-12-17T07:35:51;40.80;;;18.63;;
2868;SDS011;1442;47.448;8.582;2022-12-17T07:38:36;39.85;;;19.83;;
2868;SDS011;1442;47.448;8.582;2022-12-17T07:41:33;36.30;;;19.23;;
2868;SDS011;1442;47.448;8.582;2022-12-17T07:44:18;40.95;;;20.30;;
2868;SDS011;1442;47.448;8.582;2022-12-17T07:47:03;42.50;;;19.73;;
2868;SDS011;1442;47.448;8.582;2022-12-17T07:49:48;42.30;;;21.38;;
2868;SDS011;1442;47.448;8.582;2022-12-17T07:52:32;41.13;;;20.05;;
2868;SDS011;1442;47.448;8.582;2022-12-17T07:55:17;41.92;;;20.10;;
2868;SDS011;1442;47.448;8.582;2022-12-17T07:58:04;46.85;;;22.08;;
2868;SDS011;1442;47.448;8.582;2022-12-17T08:00:49;47.88;;;22.63;;
2868;SDS011;1442;47.448;8.582;2022-12-17T08:03:33;46.10;;;22.25;;
2868;SDS011;1442;47.448;8.582;2022-12-17T08:06:18;43.00;;;21.75;;
2868;SDS011;1442;47.448;8.582;2022-12-17T08:09:03;46.95;;;22.35;;
2868;SDS011;1442;47.448;8.582;2022-12-17T08:11:48;42.90;;;20.85;;
2868;SDS011;1442;47.448;8.582;2022-12-17T08:14:34;45.00;;;22.00;;
2868;SDS011;1442;47.448;8.582;2022-12-17T08:17:19;45.90;;;20.25;;
2868;SDS011;1442;47.448;8.582;2022-12-17T08:20:04;38.95;;;21.42;;
2868;SDS011;1442;47.448;8.582;2022-12-17T08:22:49;44.08;;;20.90;;
2868;SDS011;1442;47.448;8.582;2022-12-17T08:25:34;43.25;;;21.27;;
2868;SDS011;1442;47.448;8.582;2022-12-17T08:28:19;45.05;;;22.42;;
2868;SDS011;1442;47.448;8.582;2022-12-17T08:31:05;43.58;;;20.70;;
2868;SDS011;1442;47.448;8.582;2022-12-17T08:33:50;36.78;;;19.52;;
2868;SDS011;1442;47.448;8.582;2022-12-17T08:36:35;42.25;;;20.50;;
2868;SDS011;1442;47.448;8.582;2022-12-17T08:39:19;37.83;;;19.35;;
2868;SDS011;1442;47.448;8.582;2022-12-17T08:42:04;42.13;;;20.02;;
2868;SDS011;1442;47.448;8.582;2022-12-17T08:44:49;38.08;;;19.58;;
2868;SDS011;1442;47.448;8.582;2022-12-17T08:47:35;40.15;;;20.50;;
2868;SDS011;1442;47.448;8.582;2022-12-17T08:50:20;40.55;;;20.75;;
2868;SDS011;1442;47.448;8.582;2022-12-17T08:53:05;44.80;;;21.08;;
2868;SDS011;1442;47.448;8.582;2022-12-17T08:55:49;39.38;;;20.40;;
2868;SDS011;1442;47.448;8.582;2022-12-17T08:58:34;41.47;;;20.08;;
2868;SDS011;1442;47.448;8.582;2022-12-17T09:01:19;35.13;;;18.85;;
2868;SDS011;1442;47.448;8.582;2022-12-17T09:04:05;36.53;;;19.52;;
2868;SDS011;1442;47.448;8.582;2022-12-17T09:06:49;38.97;;;18.95;;
2868;SDS011;1442;47.448;8.582;2022-12-17T09:09:34;37.45;;;20.42;;
2868;SDS011;1442;47.448;8.582;2022-12-17T09:12:19;41.05;;;20.13;;
2868;SDS011;1442;47.448;8.582;2022-12-17T09:15:04;38.00;;;19.90;;
2868;SDS011;1442;47.448;8.582;2022-12-17T09:17:49;33.33;;;17.83;;
2868;SDS011;1442;47.448;8.582;2022-12-17T09:20:35;35.53;;;19.23;;
2868;SDS011;1442;47.448;8.582;2022-12-17T09:23:20;38.05;;;19.10;;
2868;SDS011;1442;47.448;8.582;2022-12-17T09:26:05;34.67;;;19.17;;
2868;SDS011;1442;47.448;8.582;2022-12-17T09:28:50;38.20;;;19.70;;
2868;SDS011;1442;47.448;8.582;2022-12-17T09:31:35;35.92;;;19.35;;
2868;SDS011;1442;47.448;8.582;2022-12-17T09:34:19;40.90;;;19.85;;
2868;SDS011;1442;47.448;8.582;2022-12-17T09:37:05;34.08;;;19.27;;
2868;SDS011;1442;47.448;8.582;2022-12-17T09:39:50;38.97;;;19.73;;
2868;SDS011;1442;47.448;8.582;2022-12-17T09:42:37;34.88;;;19.67;;
2868;SDS011;1442;47.448;8.582;2022-12-17T09:45:26;36.22;;;19.15;;
2868;SDS011;1442;47.448;8.582;2022-12-17T09:48:16;36.10;;;19.83;;
2868;SDS011;1442;47.448;8.582;2022-12-17T09:51:03;34.20;;;18.33;;
2868;SDS011;1442;47.448;8.582;2022-12-17T09:53:49;35.88;;;20.02;;
2868;SDS011;1442;47.448;8.582;2022-12-17T09:56:34;39.17;;;20.27;;
2868;SDS011;1442;47.448;8.582;2022-12-17T09:59:20;33.63;;;19.20;;
2868;SDS011;1442;47.448;8.582;2022-12-17T10:02:12;38.33;;;21.48;;
2868;SDS011;1442;47.448;8.582;2022-12-17T10:04:57;35.28;;;18.42;;
2868;SDS011;1442;47.448;8.582;2022-12-17T10:07:43;33.10;;;17.55;;
2868;SDS011;1442;47.448;8.582;2022-12-17T10:10:30;31.83;;;18.23;;
2868;SDS011;1442;47.448;8.582;2022-12-17T10:13:17;27.00;;;16.35;;
2868;SDS011;1442;47.448;8.582;2022-12-17T10:19:11;32.72;;;17.20;;
2868;SDS011;1442;47.448;8.582;2022-12-17T10:22:08;31.55;;;18.02;;
2868;SDS011;1442;47.448;8.582;2022-12-17T10:24:49;36.42;;;18.55;;
2868;SDS011;1442;47.448;8.582;2022-12-17T10:27:35;32.17;;;17.95;;
2868;SDS011;1442;47.448;8.582;2022-12-17T10:30:21;33.03;;;18.60;;
2868;SDS011;1442;47.448;8.582;2022-12-17T10:33:06;36.03;;;19.38;;
2868;SDS011;1442;47.448;8.582;2022-12-17T10:35:51;32.90;;;17.65;;
2868;SDS011;1442;47.448;8.582;2022-12-17T10:38:36;31.95;;;17.98;;
2868;SDS011;1442;47.448;8.582;2022-12-17T10:41:22;33.20;;;17.17;;
2868;SDS011;1442;47.448;8.582;2022-12-17T10:44:22;31.05;;;17.38;;
2868;SDS011;1442;47.448;8.582;2022-12-17T10:47:09;37.53;;;17.90;;
2868;SDS011;1442;47.448;8.582;2022-12-17T10:49:58;28.35;;;17.33;;
2868;SDS011;1442;47.448;8.582;2022-12-17T10:52:43;31.30;;;19.13;;
2868;SDS011;1442;47.448;8.582;2022-12-17T10:55:29;36.75;;;16.75;;
2868;SDS011;1442;47.448;8.582;2022-12-17T10:58:15;30.85;;;17.10;;
2868;SDS011;1442;47.448;8.582;2022-12-17T11:01:02;36.20;;;18.25;;
2868;SDS011;1442;47.448;8.582;2022-12-17T11:03:48;32.78;;;17.23;;
2868;SDS011;1442;47.448;8.582;2022-12-17T11:06:33;31.70;;;18.17;;
2868;SDS011;1442;47.448;8.582;2022-12-17T11:09:26;29.75;;;16.88;;
2868;SDS011;1442;47.448;8.582;2022-12-17T11:12:13;29.77;;;16.15;;
2868;SDS011;1442;47.448;8.582;2022-12-17T11:15:02;32.65;;;17.83;;
2868;SDS011;1442;47.448;8.582;2022-12-17T11:17:48;33.45;;;17.75;;
2868;SDS011;1442;47.448;8.582;2022-12-17T11:20:38;32.45;;;17.52;;
2868;SDS011;1442;47.448;8.582;2022-12-17T11:23:23;35.88;;;18.83;;
2868;SDS011;1442;47.448;8.582;2022-12-17T11:26:09;36.20;;;19.05;;
2868;SDS011;1442;47.448;8.582;2022-12-17T11:28:57;35.30;;;18.00;;
2868;SDS011;1442;47.448;8.582;2022-12-17T11:31:45;30.35;;;16.70;;
2868;SDS011;1442;47.448;8.582;2022-12-17T11:34:35;28.27;;;16.23;;
2868;SDS011;1442;47.448;8.582;2022-12-17T11:37:23;29.98;;;16.38;;
2868;SDS011;1442;47.448;8.582;2022-12-17T11:40:14;29.70;;;16.17;;
2868;SDS011;1442;47.448;8.582;2022-12-17T11:43:04;25.65;;;15.02;;
2868;SDS011;1442;47.448;8.582;2022-12-17T11:45:54;33.15;;;17.02;;
2868;SDS011;1442;47.448;8.582;2022-12-17T11:48:42;29.80;;;14.88;;
2868;SDS011;1442;47.448;8.582;2022-12-17T11:51:32;28.80;;;15.70;;
2868;SDS011;1442;47.448;8.582;2022-12-17T11:54:19;24.25;;;13.70;;
2868;SDS011;1442;47.448;8.582;2022-12-17T11:57:07;29.67;;;15.07;;
2868;SDS011;1442;47.448;8.582;2022-12-17T11:59:55;24.33;;;14.70;;
2868;SDS011;1442;47.448;8.582;2022-12-17T12:02:47;26.77;;;15.05;;
2868;SDS011;1442;47.448;8.582;2022-12-17T12:05:37;26.95;;;14.38;;
2868;SDS011;1442;47.448;8.582;2022-12-17T12:08:27;27.42;;;14.75;;
2868;SDS011;1442;47.448;8.582;2022-12-17T12:11:15;23.88;;;14.00;;
2868;SDS011;1442;47.448;8.582;2022-12-17T12:14:03;29.88;;;16.23;;
2868;SDS011;1442;47.448;8.582;2022-12-17T12:16:51;26.38;;;14.60;;
2868;SDS011;1442;47.448;8.582;2022-12-17T12:19:41;25.83;;;15.18;;
2868;SDS011;1442;47.448;8.582;2022-12-17T12:22:30;24.83;;;13.82;;
2868;SDS011;1442;47.448;8.582;2022-12-17T12:25:22;24.65;;;13.68;;
2868;SDS011;1442;47.448;8.582;2022-12-17T12:28:13;26.33;;;15.43;;
2868;SDS011;1442;47.448;8.582;2022-12-17T12:31:04;25.42;;;15.02;;
2868;SDS011;1442;47.448;8.582;2022-12-17T12:33:56;23.85;;;14.13;;
2868;SDS011;1442;47.448;8.582;2022-12-17T12:36:42;26.15;;;14.88;;
2868;SDS011;1442;47.448;8.582;2022-12-17T12:39:29;26.38;;;14.48;;
2868;SDS011;1442;47.448;8.582;2022-12-17T12:42:18;21.52;;;13.00;;
2868;SDS011;1442;47.448;8.582;2022-12-17T12:45:05;27.17;;;14.45;;
2868;SDS011;1442;47.448;8.582;2022-12-17T12:47:54;21.92;;;14.05;;
2868;SDS011;1442;47.448;8.582;2022-12-17T12:50:44;28.85;;;15.50;;
2868;SDS011;1442;47.448;8.582;2022-12-17T12:53:31;25.88;;;14.00;;
2868;SDS011;1442;47.448;8.582;2022-12-17T12:56:26;26.33;;;15.05;;
2868;SDS011;1442;47.448;8.582;2022-12-17T12:59:19;23.95;;;14.27;;
2868;SDS011;1442;47.448;8.582;2022-12-17T13:02:05;23.42;;;13.57;;
2868;SDS011;1442;47.448;8.582;2022-12-17T13:04:55;24.15;;;15.52;;
2868;SDS011;1442;47.448;8.582;2022-12-17T13:08:00;26.55;;;14.60;;
2868;SDS011;1442;47.448;8.582;2022-12-17T13:10:27;37.83;;;15.60;;
2868;SDS011;1442;47.448;8.582;2022-12-17T13:12:55;27.80;;;14.85;;
2868;SDS011;1442;47.448;8.582;2022-12-17T13:15:25;26.92;;;14.65;;
2868;SDS011;1442;47.448;8.582;2022-12-17T13:18:02;25.67;;;14.70;;
2868;SDS011;1442;47.448;8.582;2022-12-17T13:20:32;27.90;;;15.80;;
2868;SDS011;1442;47.448;8.582;2022-12-17T13:23:04;27.95;;;15.77;;
2868;SDS011;1442;47.448;8.582;2022-12-17T13:25:39;27.33;;;15.48;;
2868;SDS011;1442;47.448;8.582;2022-12-17T13:28:22;31.83;;;16.35;;
2868;SDS011;1442;47.448;8.582;2022-12-17T13:30:59;30.23;;;18.20;;
2868;SDS011;1442;47.448;8.582;2022-12-17T13:33:27;29.63;;;15.93;;
2868;SDS011;1442;47.448;8.582;2022-12-17T13:35:59;30.17;;;17.17;;
2868;SDS011;1442;47.448;8.582;2022-12-17T13:41:00;33.80;;;17.35;;
2868;SDS011;1442;47.448;8.582;2022-12-17T13:43:30;33.28;;;17.60;;
2868;SDS011;1442;47.448;8.582;2022-12-17T13:46:00;29.75;;;16.25;;
2868;SDS011;1442;47.448;8.582;2022-12-17T13:48:27;24.90;;;15.15;;
2868;SDS011;1442;47.448;8.582;2022-12-17T13:50:55;29.45;;;16.58;;
2868;SDS011;1442;47.448;8.582;2022-12-17T13:53:23;32.67;;;17.77;;
2868;SDS011;1442;47.448;8.582;2022-12-17T13:55:51;32.10;;;17.25;;
2868;SDS011;1442;47.448;8.582;2022-12-17T13:58:19;34.03;;;17.92;;
2868;SDS011;1442;47.448;8.582;2022-12-17T14:00:47;32.05;;;17.98;;
2868;SDS011;1442;47.448;8.582;2022-12-17T14:03:16;30.90;;;18.05;;
2868;SDS011;1442;47.448;8.582;2022-12-17T14:05:45;30.17;;;17.87;;
2868;SDS011;1442;47.448;8.582;2022-12-17T14:08:14;27.95;;;16.23;;
2868;SDS011;1442;47.448;8.582;2022-12-17T14:10:43;29.67;;;16.35;;
2868;SDS011;1442;47.448;8.582;2022-12-17T14:13:13;33.95;;;18.13;;
2868;SDS011;1442;47.448;8.582;2022-12-17T14:15:43;26.38;;;16.73;;
2868;SDS011;1442;47.448;8.582;2022-12-17T14:18:11;32.10;;;17.40;;
2868;SDS011;1442;47.448;8.582;2022-12-17T14:20:41;28.90;;;16.50;;
2868;SDS011;1442;47.448;8.582;2022-12-17T14:23:10;29.38;;;16.45;;
2868;SDS011;1442;47.448;8.582;2022-12-17T14:25:41;31.15;;;17.27;;
2868;SDS011;1442;47.448;8.582;2022-12-17T14:28:19;29.73;;;17.38;;
2868;SDS011;1442;47.448;8.582;2022-12-17T14:30:46;29.65;;;18.40;;
2868;SDS011;1442;47.448;8.582;2022-12-17T14:33:23;30.10;;;17.17;;
2868;SDS011;1442;47.448;8.582;2022-12-17T14:35:53;33.25;;;17.67;;
2868;SDS011;1442;47.448;8.582;2022-12-17T14:40:51;27.23;;;15.57;;
2868;SDS011;1442;47.448;8.582;2022-12-17T14:43:27;28.88;;;17.05;;
2868;SDS011;1442;47.448;8.582;2022-12-17T14:45:57;37.25;;;18.20;;
2868;SDS011;1442;47.448;8.582;2022-12-17T14:48:42;32.65;;;17.95;;
2868;SDS011;1442;47.448;8.582;2022-12-17T14:51:32;31.15;;;18.63;;
2868;SDS011;1442;47.448;8.582;2022-12-17T14:54:19;32.17;;;17.73;;
2868;SDS011;1442;47.448;8.582;2022-12-17T14:56:49;37.38;;;18.80;;
2868;SDS011;1442;47.448;8.582;2022-12-17T14:59:24;35.58;;;18.05;;
2868;SDS011;1442;47.448;8.582;2022-12-17T15:01:52;32.88;;;19.55;;
2868;SDS011;1442;47.448;8.582;2022-12-17T15:04:19;31.30;;;17.30;;
2868;SDS011;1442;47.448;8.582;2022-12-17T15:06:48;34.47;;;19.33;;
2868;SDS011;1442;47.448;8.582;2022-12-17T15:09:16;31.20;;;17.77;;
2868;SDS011;1442;47.448;8.582;2022-12-17T15:11:43;30.90;;;17.25;;
2868;SDS011;1442;47.448;8.582;2022-12-17T15:14:10;35.30;;;18.00;;
2868;SDS011;1442;47.448;8.582;2022-12-17T15:16:37;34.63;;;19.88;;
2868;SDS011;1442;47.448;8.582;2022-12-17T15:19:04;28.75;;;16.70;;
2868;SDS011;1442;47.448;8.582;2022-12-17T15:21:31;32.50;;;17.85;;
2868;SDS011;1442;47.448;8.582;2022-12-17T15:24:00;29.25;;;16.77;;
2868;SDS011;1442;47.448;8.582;2022-12-17T15:26:27;34.60;;;17.85;;
2868;SDS011;1442;47.448;8.582;2022-12-17T15:28:54;30.50;;;17.33;;
2868;SDS011;1442;47.448;8.582;2022-12-17T15:31:22;31.77;;;17.27;;
2868;SDS011;1442;47.448;8.582;2022-12-17T15:33:49;32.47;;;16.88;;
2868;SDS011;1442;47.448;8.582;2022-12-17T15:36:16;28.85;;;16.88;;
2868;SDS011;1442;47.448;8.582;2022-12-17T15:38:43;31.75;;;16.75;;
2868;SDS011;1442;47.448;8.582;2022-12-17T15:41:12;33.88;;;18.15;;
2868;SDS011;1442;47.448;8.582;2022-12-17T15:43:57;30.58;;;17.80;;
2868;SDS011;1442;47.448;8.582;2022-12-17T15:46:24;30.48;;;16.23;;
2868;SDS011;1442;47.448;8.582;2022-12-17T15:48:51;30.70;;;17.40;;
2868;SDS011;1442;47.448;8.582;2022-12-17T15:51:18;34.17;;;17.20;;
2868;SDS011;1442;47.448;8.582;2022-12-17T15:53:46;28.08;;;16.60;;
2868;SDS011;1442;47.448;8.582;2022-12-17T15:56:16;36.03;;;18.88;;
2868;SDS011;1442;47.448;8.582;2022-12-17T15:58:44;30.58;;;16.52;;
2868;SDS011;1442;47.448;8.582;2022-12-17T16:01:11;33.25;;;17.10;;
2868;SDS011;1442;47.448;8.582;2022-12-17T16:03:38;32.58;;;16.60;;
2868;SDS011;1442;47.448;8.582;2022-12-17T16:06:05;29.20;;;15.85;;
2868;SDS011;1442;47.448;8.582;2022-12-17T16:08:33;30.23;;;15.50;;
2868;SDS011;1442;47.448;8.582;2022-12-17T16:11:00;28.80;;;16.38;;
2868;SDS011;1442;47.448;8.582;2022-12-17T16:13:32;32.05;;;16.58;;
2868;SDS011;1442;47.448;8.582;2022-12-17T16:15:59;32.13;;;17.50;;
2868;SDS011;1442;47.448;8.582;2022-12-17T16:18:26;32.67;;;15.57;;
2868;SDS011;1442;47.448;8.582;2022-12-17T16:20:54;34.10;;;16.85;;
2868;SDS011;1442;47.448;8.582;2022-12-17T16:23:21;29.20;;;16.80;;
2868;SDS011;1442;47.448;8.582;2022-12-17T16:25:54;29.70;;;17.45;;
2868;SDS011;1442;47.448;8.582;2022-12-17T16:28:21;32.53;;;17.05;;